createdAt,value
2018-03-28T00:00:18.235Z,16.17
2018-03-28T00:02:44.267Z,18.33
2018-03-28T00:05:10.286Z,13.77
2018-03-28T00:07:37.157Z,12.27
2018-03-28T00:10:03.967Z,14.30
2018-03-28T00:12:29.981Z,14.10
2018-03-28T00:14:56.010Z,14.50
2018-03-28T00:17:22.284Z,14.37
2018-03-28T00:19:48.550Z,12.47
2018-03-28T00:22:14.586Z,14.00
2018-03-28T00:24:41.356Z,13.70
2018-03-28T00:27:08.166Z,16.50
2018-03-28T00:29:34.511Z,17.50
2018-03-28T00:32:00.520Z,13.63
2018-03-28T00:34:26.580Z,14.17
2018-03-28T00:36:52.637Z,14.47
2018-03-28T00:39:18.921Z,13.27
2018-03-28T00:41:44.930Z,16.70
2018-03-28T00:44:11.688Z,12.50
2018-03-28T00:46:39.663Z,16.47
2018-03-28T00:49:05.801Z,12.30
2018-03-28T00:51:35.786Z,12.30
2018-03-28T00:54:01.840Z,15.00
2018-03-28T00:56:28.236Z,14.80
2018-03-28T00:58:54.273Z,24.23
2018-03-28T01:01:20.508Z,15.87
2018-03-28T01:03:46.515Z,13.93
2018-03-28T01:06:13.051Z,14.67
2018-03-28T01:08:39.115Z,12.80
2018-03-28T01:11:05.883Z,14.40
2018-03-28T01:13:32.667Z,13.70
2018-03-28T01:15:58.687Z,16.80
2018-03-28T01:18:25.047Z,22.30
2018-03-28T01:20:51.099Z,13.30
2018-03-28T01:23:17.147Z,13.93
2018-03-28T01:25:43.966Z,16.80
2018-03-28T01:28:10.015Z,13.10
2018-03-28T01:30:36.163Z,14.73
2018-03-28T01:33:02.197Z,14.60
2018-03-28T01:35:28.263Z,13.23
2018-03-28T01:37:54.285Z,17.10
2018-03-28T01:40:20.327Z,17.53
2018-03-28T01:42:46.364Z,15.90
2018-03-28T01:45:12.383Z,17.70
2018-03-28T01:47:40.525Z,15.00
2018-03-28T01:50:07.312Z,15.70
2018-03-28T01:52:33.343Z,17.03
2018-03-28T01:54:59.370Z,13.37
2018-03-28T01:57:25.896Z,14.23
2018-03-28T01:59:52.250Z,16.17
2018-03-28T02:02:18.279Z,14.93
2018-03-28T02:04:45.077Z,13.47
2018-03-28T02:07:11.109Z,16.87
2018-03-28T02:09:37.142Z,16.43
2018-03-28T02:12:03.205Z,16.97
2018-03-28T02:14:29.221Z,16.10
2018-03-28T02:16:55.236Z,13.83
2018-03-28T02:19:21.265Z,13.13
2018-03-28T02:21:47.288Z,16.30
2018-03-28T02:24:20.932Z,14.87
2018-03-28T02:26:46.935Z,14.87
2018-03-28T02:29:13.730Z,13.80
2018-03-28T02:31:39.772Z,15.37
2018-03-28T02:34:06.116Z,12.27
2018-03-28T02:36:33.139Z,14.53
2018-03-28T02:38:59.587Z,14.50
2018-03-28T02:41:25.616Z,14.97
2018-03-28T02:43:52.417Z,18.17
2018-03-28T02:46:18.436Z,16.20
2018-03-28T02:48:44.467Z,14.27
2018-03-28T02:51:10.486Z,15.03
2018-03-28T02:53:36.851Z,15.20
2018-03-28T02:56:02.887Z,14.30
2018-03-28T02:58:28.919Z,16.00
2018-03-28T03:00:54.968Z,15.13
2018-03-28T03:03:20.988Z,13.80
2018-03-28T03:05:47.020Z,18.60
2018-03-28T03:08:13.062Z,16.60
2018-03-28T03:10:39.087Z,15.10
2018-03-28T03:13:06.280Z,15.33
2018-03-28T03:15:32.318Z,16.97
2018-03-28T03:17:58.361Z,16.13
2018-03-28T03:20:24.369Z,15.17
2018-03-28T03:22:50.407Z,17.50
2018-03-28T03:25:16.442Z,20.27
2018-03-28T03:27:43.739Z,21.97
2018-03-28T03:30:09.826Z,17.20
2018-03-28T03:32:36.571Z,17.80
2018-03-28T03:35:03.392Z,19.43
2018-03-28T03:37:29.442Z,18.70
2018-03-28T03:39:55.474Z,17.93
2018-03-28T03:42:21.512Z,21.20
2018-03-28T03:44:47.560Z,22.63
2018-03-28T03:47:13.560Z,20.27
2018-03-28T03:49:39.851Z,18.90
2018-03-28T03:52:06.139Z,22.57
2018-03-28T03:54:32.555Z,23.23
2018-03-28T03:56:58.838Z,21.30
2018-03-28T03:59:24.868Z,26.00
2018-03-28T04:01:50.892Z,23.27
2018-03-28T04:04:16.949Z,23.03
2018-03-28T04:06:43.148Z,21.03
2018-03-28T04:09:09.163Z,26.27
2018-03-28T04:11:35.965Z,21.57
2018-03-28T04:14:02.544Z,21.23
2018-03-28T04:16:28.562Z,25.33
2018-03-28T04:18:54.587Z,25.97
2018-03-28T04:21:20.610Z,25.87
2018-03-28T04:23:46.627Z,29.07
2018-03-28T04:26:13.636Z,33.70
2018-03-28T04:28:39.639Z,26.80
2018-03-28T04:31:05.676Z,30.20
2018-03-28T04:33:31.744Z,32.47
2018-03-28T04:35:57.746Z,32.50
2018-03-28T04:38:24.103Z,33.70
2018-03-28T04:40:50.222Z,34.63
2018-03-28T04:43:16.249Z,31.93
2018-03-28T04:45:42.437Z,30.90
2018-03-28T04:48:08.452Z,31.50
2018-03-28T04:50:34.506Z,31.87
2018-03-28T04:53:00.728Z,29.80
2018-03-28T04:55:27.059Z,33.33
2018-03-28T04:57:53.063Z,33.60
2018-03-28T05:00:19.532Z,31.10
2018-03-28T05:02:45.515Z,43.53
2018-03-28T05:05:11.539Z,32.10
2018-03-28T05:07:37.582Z,34.13
2018-03-28T05:10:03.734Z,38.17
2018-03-28T05:12:29.817Z,29.53
2018-03-28T05:14:55.855Z,33.10
2018-03-28T05:17:21.892Z,33.40
2018-03-28T05:19:47.932Z,30.27
2018-03-28T05:22:14.283Z,29.33
2018-03-28T05:24:40.381Z,37.23
2018-03-28T05:27:06.460Z,34.30
2018-03-28T05:29:32.692Z,33.50
2018-03-28T05:31:58.722Z,32.47
2018-03-28T05:34:25.566Z,35.47
2018-03-28T05:36:52.336Z,35.73
2018-03-28T05:39:18.369Z,35.00
2018-03-28T05:41:45.212Z,34.60
2018-03-28T05:44:11.279Z,34.07
2018-03-28T05:46:37.328Z,32.13
2018-03-28T05:49:03.448Z,34.70
2018-03-28T05:51:29.478Z,33.57
2018-03-28T05:53:55.499Z,31.93
2018-03-28T05:56:21.859Z,33.93
2018-03-28T05:58:47.881Z,31.23
2018-03-28T06:01:14.700Z,32.77
2018-03-28T06:03:40.803Z,37.57
2018-03-28T06:06:06.877Z,36.10
2018-03-28T06:08:32.910Z,33.10
2018-03-28T06:10:58.975Z,31.17
2018-03-28T06:13:25.758Z,33.43
2018-03-28T06:15:51.908Z,31.53
2018-03-28T06:18:18.094Z,36.93
2018-03-28T06:20:44.223Z,31.63
2018-03-28T06:23:10.255Z,37.70
2018-03-28T06:25:36.443Z,34.10
2018-03-28T06:28:02.557Z,33.80
2018-03-28T06:30:28.639Z,35.03
2018-03-28T06:32:54.691Z,38.40
2018-03-28T06:35:20.806Z,35.77
2018-03-28T06:37:46.835Z,33.10
2018-03-28T06:40:12.892Z,35.63
2018-03-28T06:42:38.951Z,36.00
2018-03-28T06:45:05.128Z,29.83
2018-03-28T06:47:31.971Z,34.30
2018-03-28T06:49:58.024Z,41.03
2018-03-28T06:52:25.211Z,42.37
2018-03-28T06:54:51.735Z,41.73
2018-03-28T06:57:18.531Z,29.90
2018-03-28T06:59:44.589Z,35.73
2018-03-28T07:02:10.619Z,35.90
2018-03-28T07:04:36.655Z,34.90
2018-03-28T07:07:02.760Z,36.73
2018-03-28T07:09:28.799Z,41.07
2018-03-28T07:11:54.828Z,38.50
2018-03-28T07:14:20.937Z,34.40
2018-03-28T07:16:46.967Z,40.50
2018-03-28T07:19:12.991Z,38.13
2018-03-28T07:21:39.189Z,34.40
2018-03-28T07:24:05.248Z,34.43
2018-03-28T07:26:31.335Z,35.17
2018-03-28T07:28:58.135Z,32.07
2018-03-28T07:31:24.231Z,37.93
2018-03-28T07:33:51.080Z,38.43
2018-03-28T07:36:18.235Z,31.20
2018-03-28T07:38:44.263Z,35.27
2018-03-28T07:41:10.266Z,33.50
2018-03-28T07:43:36.310Z,34.30
2018-03-28T07:46:02.351Z,32.60
2018-03-28T07:48:28.378Z,31.83
2018-03-28T07:50:55.166Z,33.30
2018-03-28T07:53:21.203Z,28.40
2018-03-28T07:55:47.337Z,33.37
2018-03-28T07:58:13.352Z,32.70
2018-03-28T08:00:39.458Z,33.27
2018-03-28T08:03:05.518Z,32.90
2018-03-28T08:05:31.552Z,32.67
2018-03-28T08:07:57.563Z,26.67
2018-03-28T08:10:23.991Z,32.00
2018-03-28T08:12:50.755Z,28.17
2018-03-28T08:15:16.822Z,26.87
2018-03-28T08:20:36.651Z,27.17
2018-03-28T08:23:02.744Z,27.83
2018-03-28T08:25:28.810Z,29.20
2018-03-28T08:27:54.862Z,28.23
2018-03-28T08:30:21.166Z,23.10
2018-03-28T08:32:47.221Z,23.70
2018-03-28T08:35:13.203Z,22.60
2018-03-28T08:37:39.416Z,25.40
2018-03-28T08:40:05.479Z,22.53
2018-03-28T08:42:31.522Z,29.17
2018-03-28T08:44:57.562Z,28.97
2018-03-28T08:47:23.615Z,24.70
2018-03-28T08:49:50.360Z,31.87
2018-03-28T08:52:16.602Z,23.80
2018-03-28T08:54:42.634Z,44.03
2018-03-28T08:57:08.688Z,26.07
2018-03-28T08:59:35.473Z,24.40
2018-03-28T09:02:01.491Z,21.93
2018-03-28T09:04:27.516Z,27.83
2018-03-28T09:06:54.323Z,28.40
2018-03-28T09:09:20.392Z,24.40
2018-03-28T09:11:46.630Z,25.00
2018-03-28T09:14:12.668Z,29.23
2018-03-28T09:16:38.758Z,27.90
2018-03-28T09:19:04.814Z,25.53
2018-03-28T09:21:30.837Z,25.27
2018-03-28T09:23:57.845Z,26.80
2018-03-28T09:26:23.876Z,27.00
2018-03-28T09:28:49.891Z,26.83
2018-03-28T09:31:15.942Z,28.33
2018-03-28T09:33:41.974Z,28.07
2018-03-28T09:36:08.005Z,33.07
2018-03-28T09:38:34.828Z,27.90
2018-03-28T09:41:00.860Z,27.03
2018-03-28T09:43:26.912Z,30.43
2018-03-28T09:45:52.978Z,28.90
2018-03-28T09:48:19.029Z,26.93
2018-03-28T09:50:45.041Z,28.40
2018-03-28T09:53:11.075Z,26.03
2018-03-28T09:55:37.121Z,30.50
2018-03-28T09:58:03.207Z,29.30
2018-03-28T10:00:29.428Z,27.07
2018-03-28T10:03:02.395Z,27.43
2018-03-28T10:05:34.675Z,30.03
2018-03-28T10:08:00.766Z,27.67
2018-03-28T10:10:26.838Z,31.17
2018-03-28T10:12:52.878Z,27.73
2018-03-28T10:15:18.962Z,24.63
2018-03-28T10:17:45.015Z,30.03
2018-03-28T10:20:11.143Z,29.20
2018-03-28T10:22:37.210Z,24.10
2018-03-28T10:25:03.339Z,25.43
2018-03-28T10:27:29.411Z,25.07
2018-03-28T10:29:55.449Z,27.10
2018-03-28T10:32:21.504Z,25.50
2018-03-28T10:34:47.647Z,24.27
2018-03-28T10:37:13.688Z,24.67
2018-03-28T10:39:40.457Z,20.97
2018-03-28T10:42:07.312Z,18.50
2018-03-28T10:44:33.283Z,22.70
2018-03-28T10:46:59.328Z,20.10
2018-03-28T10:49:25.521Z,26.27
2018-03-28T10:51:52.361Z,22.30
2018-03-28T10:54:19.141Z,23.30
2018-03-28T10:56:45.279Z,22.23
2018-03-28T10:59:11.306Z,25.70
2018-03-28T11:01:38.094Z,24.80
2018-03-28T11:04:04.156Z,21.23
2018-03-28T11:06:30.190Z,20.43
2018-03-28T11:08:56.207Z,23.20
2018-03-28T11:11:22.270Z,26.30
2018-03-28T11:13:48.314Z,25.37
2018-03-28T11:16:14.351Z,24.27
2018-03-28T11:18:40.397Z,26.00
2018-03-28T11:21:06.449Z,23.10
2018-03-28T11:23:33.211Z,24.10
2018-03-28T11:25:59.277Z,24.33
2018-03-28T11:28:25.264Z,23.80
2018-03-28T11:30:52.057Z,22.20
2018-03-28T11:33:18.132Z,28.23
2018-03-28T11:35:44.151Z,23.23
2018-03-28T11:38:10.263Z,25.43
2018-03-28T11:40:36.344Z,27.53
2018-03-28T11:43:02.612Z,27.40
2018-03-28T11:45:28.745Z,24.50
2018-03-28T11:47:55.103Z,32.20
2018-03-28T11:50:21.855Z,26.63
2018-03-28T11:52:48.609Z,26.53
2018-03-28T11:55:15.436Z,23.70
2018-03-28T11:57:41.452Z,26.90
2018-03-28T12:00:07.482Z,23.70
2018-03-28T12:02:33.709Z,23.20
2018-03-28T12:04:59.782Z,25.80
2018-03-28T12:07:25.844Z,24.73
2018-03-28T12:09:52.739Z,28.70
2018-03-28T12:12:18.807Z,25.43
2018-03-28T12:14:44.851Z,25.47
2018-03-28T12:17:10.970Z,25.00
2018-03-28T12:19:37.138Z,21.30
2018-03-28T12:22:04.131Z,26.70
2018-03-28T12:24:30.234Z,24.77
2018-03-28T12:26:56.285Z,27.53
2018-03-28T12:29:22.335Z,25.27
2018-03-28T12:31:49.488Z,22.47
2018-03-28T12:34:16.266Z,26.17
2018-03-28T12:36:42.258Z,23.67
2018-03-28T12:39:08.649Z,23.77
2018-03-28T12:41:34.699Z,27.77
2018-03-28T12:44:00.734Z,21.97
2018-03-28T12:46:27.039Z,25.20
2018-03-28T12:48:53.802Z,23.03
2018-03-28T12:51:19.827Z,29.20
2018-03-28T12:53:46.634Z,25.50
2018-03-28T12:56:12.646Z,26.03
2018-03-28T12:58:38.733Z,25.93
2018-03-28T13:01:04.888Z,23.10
2018-03-28T13:03:30.928Z,25.77
2018-03-28T13:05:57.711Z,23.37
2018-03-28T13:08:23.743Z,23.80
2018-03-28T13:10:49.790Z,30.57
2018-03-28T13:13:15.794Z,26.63
2018-03-28T13:15:42.562Z,24.20
2018-03-28T13:18:08.622Z,24.60
2018-03-28T13:20:34.663Z,26.40
2018-03-28T13:23:00.699Z,26.90
2018-03-28T13:25:26.896Z,26.30
2018-03-28T13:27:53.651Z,22.93
2018-03-28T13:30:20.430Z,27.40
2018-03-28T13:32:46.471Z,26.53
2018-03-28T13:35:12.494Z,23.93
2018-03-28T13:37:38.542Z,24.27
2018-03-28T13:40:04.579Z,26.17
2018-03-28T13:42:30.589Z,26.63
2018-03-28T13:44:57.373Z,26.57
2018-03-28T13:47:23.382Z,27.73
2018-03-28T13:49:50.152Z,27.90
2018-03-28T13:52:16.150Z,30.87
2018-03-28T13:54:42.226Z,30.03
2018-03-28T13:57:08.292Z,34.70
2018-03-28T13:59:34.360Z,35.00
2018-03-28T14:02:00.400Z,26.37
2018-03-28T14:04:26.468Z,30.43
2018-03-28T14:06:52.482Z,26.37
2018-03-28T14:09:19.355Z,27.20
2018-03-28T14:11:46.119Z,31.50
2018-03-28T14:14:12.122Z,27.63
2018-03-28T14:16:38.146Z,28.90
2018-03-28T14:19:04.216Z,30.53
2018-03-28T14:21:30.964Z,31.57
2018-03-28T14:23:57.721Z,32.00
2018-03-28T14:26:23.738Z,31.20
2018-03-28T14:28:50.519Z,35.50
2018-03-28T14:31:17.307Z,30.23
2018-03-28T14:33:43.331Z,35.97
2018-03-28T14:36:09.393Z,35.40
2018-03-28T14:38:35.458Z,34.67
2018-03-28T14:41:01.476Z,30.83
2018-03-28T14:43:27.482Z,33.77
2018-03-28T14:45:53.786Z,35.77
2018-03-28T14:48:20.534Z,36.10
2018-03-28T14:50:47.274Z,32.50
2018-03-28T14:53:13.288Z,32.07
2018-03-28T14:55:39.344Z,45.40
2018-03-28T14:58:05.364Z,38.40
2018-03-28T15:00:31.417Z,36.50
2018-03-28T15:02:57.420Z,33.27
2018-03-28T15:05:23.442Z,36.30
2018-03-28T15:07:49.479Z,37.70
2018-03-28T15:10:15.534Z,36.60
2018-03-28T15:12:42.352Z,37.17
2018-03-28T15:15:08.415Z,44.07
2018-03-28T15:17:34.563Z,33.37
2018-03-28T15:20:00.950Z,34.80
2018-03-28T15:22:27.712Z,34.10
2018-03-28T15:24:53.722Z,36.60
2018-03-28T15:27:19.850Z,42.30
2018-03-28T15:29:45.878Z,38.40
2018-03-28T15:32:11.906Z,35.17
2018-03-28T15:34:37.920Z,40.70
2018-03-28T15:37:03.979Z,41.87
2018-03-28T15:39:30.032Z,44.67
2018-03-28T15:41:56.027Z,33.47
2018-03-28T15:44:22.102Z,42.03
2018-03-28T15:46:48.140Z,37.70
2018-03-28T15:49:14.183Z,40.33
2018-03-28T15:51:40.211Z,38.80
2018-03-28T15:54:06.280Z,47.87
2018-03-28T15:56:33.130Z,44.63
2018-03-28T15:58:59.187Z,39.10
2018-03-28T16:01:25.180Z,43.90
2018-03-28T16:03:51.275Z,41.40
2018-03-28T16:06:17.311Z,49.23
2018-03-28T16:08:43.484Z,45.10
2018-03-28T16:11:09.489Z,42.03
2018-03-28T16:13:36.277Z,41.27
2018-03-28T16:16:02.360Z,46.00
2018-03-28T16:18:29.126Z,53.87
2018-03-28T16:20:55.160Z,49.83
2018-03-28T16:23:21.914Z,47.00
2018-03-28T16:25:47.975Z,43.97
2018-03-28T16:28:14.018Z,50.13
2018-03-28T16:30:40.060Z,47.60
2018-03-28T16:33:06.347Z,45.37
2018-03-28T16:35:33.193Z,51.30
2018-03-28T16:37:59.213Z,53.73
2018-03-28T16:40:25.239Z,45.73
2018-03-28T16:42:51.619Z,46.53
2018-03-28T16:45:18.402Z,53.40
2018-03-28T16:47:44.433Z,45.70
2018-03-28T16:50:10.443Z,46.90
2018-03-28T16:52:36.475Z,55.07
2018-03-28T16:55:02.692Z,51.73
2018-03-28T16:57:29.305Z,48.97
2018-03-28T16:59:55.363Z,50.70
2018-03-28T17:02:21.396Z,42.10
2018-03-28T17:04:47.686Z,45.63
2018-03-28T17:07:14.613Z,50.37
2018-03-28T17:09:40.906Z,48.07
2018-03-28T17:12:07.104Z,53.77
2018-03-28T17:14:33.196Z,48.50
2018-03-28T17:16:59.289Z,67.00
2018-03-28T17:19:25.443Z,47.90
2018-03-28T17:21:51.407Z,44.00
2018-03-28T17:24:17.411Z,44.43
2018-03-28T17:26:43.444Z,42.93
2018-03-28T17:29:09.491Z,45.90
2018-03-28T17:31:36.234Z,46.07
2018-03-28T17:34:02.338Z,44.63
2018-03-28T17:36:28.335Z,45.33
2018-03-28T17:38:54.388Z,45.50
2018-03-28T17:41:20.409Z,49.97
2018-03-28T17:43:46.430Z,48.87
2018-03-28T17:46:13.401Z,57.17
2018-03-28T17:48:39.476Z,56.20
2018-03-28T17:51:06.244Z,53.97
2018-03-28T17:53:32.834Z,45.67
2018-03-28T17:55:59.625Z,49.60
2018-03-28T17:58:25.691Z,49.63
2018-03-28T18:00:51.738Z,46.60
2018-03-28T18:03:17.835Z,51.27
2018-03-28T18:05:43.914Z,48.73
2018-03-28T18:08:09.974Z,45.27
2018-03-28T18:10:36.790Z,46.40
2018-03-28T18:13:02.818Z,45.40
2018-03-28T18:15:28.848Z,52.63
2018-03-28T18:17:54.925Z,46.77
2018-03-28T18:20:20.968Z,53.97
2018-03-28T18:22:47.708Z,43.87
2018-03-28T18:25:13.757Z,48.67
2018-03-28T18:27:40.535Z,47.87
2018-03-28T18:30:06.567Z,48.90
2018-03-28T18:32:32.599Z,50.00
2018-03-28T18:34:58.638Z,55.70
2018-03-28T18:37:24.666Z,46.23
2018-03-28T18:39:50.690Z,58.33
2018-03-28T18:42:16.736Z,53.97
2018-03-28T18:44:43.499Z,57.27
2018-03-28T18:47:09.555Z,52.80
2018-03-28T18:49:35.602Z,54.63
2018-03-28T18:52:01.623Z,52.67
2018-03-28T18:54:27.652Z,59.37
2018-03-28T18:56:53.682Z,60.53
2018-03-28T18:59:19.691Z,58.97
2018-03-28T19:01:45.745Z,58.90
2018-03-28T19:04:11.750Z,59.40
2018-03-28T19:06:37.760Z,55.37
2018-03-28T19:09:03.834Z,57.30
2018-03-28T19:11:30.126Z,52.80
2018-03-28T19:13:56.137Z,54.13
2018-03-28T19:16:22.924Z,57.30
2018-03-28T19:18:48.939Z,57.60
2018-03-28T19:21:14.975Z,64.93
2018-03-28T19:23:41.694Z,52.00
2018-03-28T19:26:07.726Z,53.37
2018-03-28T19:28:33.739Z,58.53
2018-03-28T19:30:59.742Z,61.53
2018-03-28T19:33:25.755Z,63.43
2018-03-28T19:35:52.518Z,46.47
2018-03-28T19:38:18.545Z,50.00
2018-03-28T19:40:44.561Z,55.40
2018-03-28T19:43:10.585Z,47.93
2018-03-28T19:45:36.635Z,48.17
2018-03-28T19:48:02.684Z,48.27
2018-03-28T19:50:29.506Z,51.97
2018-03-28T19:52:55.530Z,52.67
2018-03-28T19:55:21.554Z,49.40
2018-03-28T19:57:47.572Z,56.10
2018-03-28T20:00:13.590Z,49.13
2018-03-28T20:02:40.341Z,49.80
2018-03-28T20:05:07.261Z,54.33
2018-03-28T20:07:34.040Z,61.73
2018-03-28T20:10:00.080Z,60.13
2018-03-28T20:12:26.894Z,58.37
2018-03-28T20:14:53.756Z,57.83
2018-03-28T20:17:19.774Z,55.27
2018-03-28T20:19:46.054Z,54.73
2018-03-28T20:22:12.830Z,55.23
2018-03-28T20:24:39.611Z,54.73
2018-03-28T20:27:05.712Z,54.87
2018-03-28T20:29:32.471Z,58.40
2018-03-28T20:31:59.222Z,63.00
2018-03-28T20:34:25.306Z,52.37
2018-03-28T20:36:51.352Z,53.07
2018-03-28T20:39:18.310Z,58.63
2018-03-28T20:41:44.642Z,57.17
2018-03-28T20:44:10.999Z,65.17
2018-03-28T20:46:37.068Z,59.83
2018-03-28T20:49:03.148Z,59.27
2018-03-28T20:51:29.300Z,55.57
2018-03-28T20:53:55.363Z,57.97
2018-03-28T20:56:21.459Z,55.53
2018-03-28T20:58:47.630Z,62.13
2018-03-28T21:01:13.671Z,64.90
2018-03-28T21:03:39.730Z,59.87
2018-03-28T21:06:05.857Z,55.73
2018-03-28T21:08:32.633Z,55.30
2018-03-28T21:10:58.981Z,60.30
2018-03-28T21:13:25.002Z,57.53
2018-03-28T21:15:51.072Z,64.73
2018-03-28T21:18:17.898Z,60.57
2018-03-28T21:20:43.936Z,59.30
2018-03-28T21:23:09.966Z,58.40
2018-03-28T21:25:36.232Z,51.80
2018-03-28T21:28:03.027Z,56.50
2018-03-28T21:30:29.059Z,62.40
2018-03-28T21:32:55.154Z,57.37
2018-03-28T21:35:21.233Z,54.67
2018-03-28T21:37:47.266Z,49.87
2018-03-28T21:40:13.393Z,53.13
2018-03-28T21:42:39.400Z,54.80
2018-03-28T21:45:05.434Z,55.30
2018-03-28T21:47:31.459Z,60.43
2018-03-28T21:49:57.464Z,58.43
2018-03-28T21:52:23.506Z,50.67
2018-03-28T21:54:49.626Z,56.80
2018-03-28T21:57:15.649Z,54.47
2018-03-28T21:59:42.395Z,61.40
2018-03-28T22:02:09.966Z,50.10
2018-03-28T22:04:36.720Z,55.00
2018-03-28T22:07:03.494Z,47.53
2018-03-28T22:09:29.533Z,54.73
2018-03-28T22:11:55.555Z,54.33
2018-03-28T22:14:21.582Z,49.10
2018-03-28T22:16:48.386Z,57.37
2018-03-28T22:19:14.383Z,54.30
2018-03-28T22:21:40.471Z,51.17
2018-03-28T22:24:06.524Z,53.30
2018-03-28T22:26:32.559Z,49.10
2018-03-28T22:28:58.583Z,56.07
2018-03-28T22:31:24.653Z,53.97
2018-03-28T22:33:50.682Z,54.30
2018-03-28T22:36:16.710Z,53.40
2018-03-28T22:38:42.756Z,45.63
2018-03-28T22:41:09.505Z,52.17
2018-03-28T22:43:36.254Z,55.33
2018-03-28T22:46:03.050Z,60.13
2018-03-28T22:48:29.067Z,49.77
2018-03-28T22:50:55.087Z,60.00
2018-03-28T22:53:21.844Z,51.17
2018-03-28T22:55:55.530Z,51.23
2018-03-28T22:58:21.758Z,49.33
2018-03-28T23:00:48.529Z,54.57
2018-03-28T23:03:14.575Z,50.93
2018-03-28T23:05:40.701Z,47.47
2018-03-28T23:08:06.731Z,49.87
2018-03-28T23:10:33.085Z,46.80
2018-03-28T23:12:59.175Z,44.67
2018-03-28T23:15:25.206Z,46.57
2018-03-28T23:17:51.231Z,47.67
2018-03-28T23:20:18.043Z,49.03
2018-03-28T23:22:44.066Z,46.93
2018-03-28T23:25:10.089Z,44.97
2018-03-28T23:27:36.158Z,47.43
2018-03-28T23:30:02.190Z,47.40
2018-03-28T23:32:28.207Z,41.00
2018-03-28T23:34:55.031Z,46.10
2018-03-28T23:37:21.030Z,47.43
2018-03-28T23:39:47.084Z,44.50
2018-03-28T23:42:13.882Z,38.67
2018-03-28T23:44:39.945Z,45.00
2018-03-28T23:47:06.426Z,49.03
2018-03-28T23:49:33.202Z,43.80
2018-03-28T23:51:59.274Z,40.87
2018-03-28T23:54:25.307Z,36.77
2018-03-28T23:56:51.371Z,34.03
2018-03-28T23:59:17.398Z,40.47
